Time;durP1;ratioP1;P1;durP2;ratioP2;P2;SDS_P1;SDS_P2;PMS_P1;PMS_P2;Temp;Humidity;BMP_temperature;BMP_pressure;BME280_temperature;BME280_humidity;BME280_pressure;Samples;Min_cycle;Max_cycle;Signal;HPM_P1;HPM_P2
2022/02/23 00:00:08;;;;;;;21.02;3.88;;;14.70;69.60;;;;;;4160305;28;20045;-69
2022/02/23 00:02:32;;;;;;;18.95;3.05;;;14.70;69.80;;;;;;4160846;28;20063;-69
2022/02/23 00:04:54;;;;;;;21.88;3.63;;;14.70;69.70;;;;;;4160756;28;20137;-70
2022/02/23 00:07:17;;;;;;;18.15;3.88;;;14.70;69.80;;;;;;4160660;28;20068;-69
2022/02/23 00:09:39;;;;;;;27.80;4.70;;;14.70;69.60;;;;;;4158987;28;20056;-69
2022/02/23 00:12:01;;;;;;;22.88;3.45;;;14.70;70.70;;;;;;4159387;28;20091;-69
2022/02/23 00:14:24;;;;;;;17.58;4.10;;;14.70;72.10;;;;;;4160246;28;20077;-69
2022/02/23 00:16:47;;;;;;;23.88;3.78;;;14.80;71.50;;;;;;4160288;28;20053;-70
2022/02/23 00:19:09;;;;;;;24.60;4.10;;;14.80;71.10;;;;;;4160071;28;20371;-70
2022/02/23 00:21:32;;;;;;;28.05;5.32;;;14.80;70.90;;;;;;4160340;28;20041;-69
2022/02/23 00:23:54;;;;;;;24.15;4.43;;;14.80;71.00;;;;;;4160718;28;20451;-69
2022/02/23 00:26:17;;;;;;;17.48;4.28;;;14.90;71.20;;;;;;4160032;28;20817;-69
2022/02/23 00:28:39;;;;;;;17.25;3.65;;;14.90;70.70;;;;;;4158547;28;20060;-69
2022/02/23 00:31:02;;;;;;;22.55;4.30;;;14.90;70.60;;;;;;4160378;28;20046;-69
2022/02/23 00:33:25;;;;;;;21.08;3.95;;;14.90;70.50;;;;;;4160363;28;20056;-69
2022/02/23 00:35:47;;;;;;;23.58;3.85;;;14.90;70.50;;;;;;4160171;28;20181;-69
2022/02/23 00:38:09;;;;;;;22.85;4.10;;;14.90;70.50;;;;;;4160350;28;20064;-70
2022/02/23 00:40:31;;;;;;;21.20;4.07;;;14.90;70.60;;;;;;4160037;28;20103;-68
2022/02/23 00:42:55;;;;;;;18.73;4.18;;;14.90;70.40;;;;;;4158368;28;20393;-70
2022/02/23 00:45:17;;;;;;;27.83;4.57;;;14.90;70.90;;;;;;4160123;28;20049;-70
2022/02/23 00:47:41;;;;;;;19.02;4.45;;;15.00;70.90;;;;;;4160281;28;20486;-69
2022/02/23 00:50:04;;;;;;;18.17;4.05;;;15.00;70.50;;;;;;4158524;28;20065;-69
2022/02/23 00:52:25;;;;;;;17.70;4.13;;;15.10;70.30;;;;;;4158726;28;20148;-69
2022/02/23 00:54:48;;;;;;;21.15;3.92;;;15.10;70.10;;;;;;4152354;28;20063;-70
2022/02/23 00:57:10;;;;;;;21.85;3.70;;;15.10;69.80;;;;;;4158615;28;20052;-69
2022/02/23 00:59:33;;;;;;;23.60;4.10;;;15.10;69.90;;;;;;4160263;28;20170;-70
2022/02/23 01:01:55;;;;;;;23.92;4.50;;;15.10;69.60;;;;;;4159671;28;20055;-70
2022/02/23 01:04:19;;;;;;;18.58;3.55;;;15.10;69.90;;;;;;4159343;28;20041;-69
2022/02/23 01:06:41;;;;;;;22.35;3.53;;;15.10;69.90;;;;;;4158970;28;20505;-69
2022/02/23 01:09:04;;;;;;;17.40;3.88;;;15.00;69.80;;;;;;4159436;28;20065;-69
2022/02/23 01:11:26;;;;;;;23.02;4.10;;;15.00;69.90;;;;;;4159606;28;20053;-70
2022/02/23 01:13:51;;;;;;;27.42;4.43;;;15.00;70.30;;;;;;4159823;28;20128;-70
2022/02/23 01:16:14;;;;;;;22.17;4.28;;;15.10;70.20;;;;;;4159121;28;20045;-67
2022/02/23 01:18:36;;;;;;;16.70;4.00;;;15.10;69.90;;;;;;4159406;28;20124;-70
2022/02/23 01:20:59;;;;;;;22.30;4.40;;;15.20;70.60;;;;;;4159373;28;20489;-70
2022/02/23 01:23:21;;;;;;;23.02;3.78;;;15.20;69.50;;;;;;4158994;28;20053;-70
2022/02/23 01:25:45;;;;;;;21.48;3.92;;;15.20;69.40;;;;;;4174166;28;20484;-70
2022/02/23 01:28:08;;;;;;;20.40;4.25;;;15.20;69.40;;;;;;4175882;28;20041;-70
2022/02/23 01:30:31;;;;;;;17.55;4.97;;;15.20;69.40;;;;;;4176178;28;20076;-70
2022/02/23 01:32:56;;;;;;;16.17;3.70;;;15.20;69.60;;;;;;4176191;28;20049;-70
2022/02/23 01:35:18;;;;;;;19.52;4.15;;;15.30;69.50;;;;;;4176103;28;20556;-71
2022/02/23 01:37:42;;;;;;;20.45;4.28;;;15.30;69.20;;;;;;4175750;28;20052;-70
2022/02/23 01:40:06;;;;;;;16.98;3.05;;;15.30;68.90;;;;;;4175849;28;20132;-70
2022/02/23 01:42:28;;;;;;;30.17;4.35;;;15.40;68.90;;;;;;4159535;28;20045;-70
2022/02/23 01:44:50;;;;;;;14.13;3.65;;;15.40;68.70;;;;;;4172326;28;20067;-70
2022/02/23 01:47:13;;;;;;;17.50;3.03;;;15.40;68.80;;;;;;4159255;28;20073;-70
2022/02/23 01:49:35;;;;;;;16.50;2.72;;;15.40;68.80;;;;;;4159558;28;20099;-70
2022/02/23 01:51:58;;;;;;;24.30;4.00;;;15.40;69.70;;;;;;4168377;28;20132;-70
2022/02/23 01:54:22;;;;;;;20.35;3.80;;;15.40;69.00;;;;;;4175987;28;20048;-71
2022/02/23 01:56:44;;;;;;;15.30;3.72;;;15.40;68.80;;;;;;4175397;28;20144;-70
2022/02/23 01:59:06;;;;;;;11.75;3.30;;;15.40;68.60;;;;;;4175709;28;20072;-71
2022/02/23 02:01:28;;;;;;;19.85;3.55;;;15.40;68.50;;;;;;4175803;28;20491;-71
2022/02/23 02:03:50;;;;;;;15.57;3.72;;;15.40;68.50;;;;;;4175854;28;20049;-70
2022/02/23 02:06:12;;;;;;;18.25;3.63;;;15.40;68.60;;;;;;4175788;28;20045;-70
2022/02/23 02:08:34;;;;;;;17.65;4.38;;;15.40;68.50;;;;;;4174978;28;20060;-66
2022/02/23 02:10:58;;;;;;;18.67;3.35;;;15.40;68.20;;;;;;4175833;28;20049;-71
2022/02/23 02:13:20;;;;;;;35.25;3.88;;;15.40;68.40;;;;;;4175230;28;20127;-70
2022/02/23 02:15:43;;;;;;;18.10;3.10;;;15.40;68.30;;;;;;4175438;28;20053;-71
2022/02/23 02:18:05;;;;;;;21.98;3.90;;;15.40;68.40;;;;;;4178003;28;20457;-71
2022/02/23 02:20:27;;;;;;;18.92;3.65;;;15.40;68.40;;;;;;4178420;28;20063;-72
2022/02/23 02:22:50;;;;;;;17.75;3.45;;;15.40;68.30;;;;;;4178762;28;20122;-70
2022/02/23 02:25:12;;;;;;;22.77;3.92;;;15.30;68.60;;;;;;4178759;28;20060;-70
2022/02/23 02:27:34;;;;;;;13.85;4.00;;;15.30;68.90;;;;;;4178901;28;20436;-70
2022/02/23 02:29:56;;;;;;;21.05;3.78;;;15.30;69.00;;;;;;4162285;28;20049;-70
2022/02/23 02:32:18;;;;;;;13.68;3.55;;;15.30;69.00;;;;;;4162075;28;20053;-68
2022/02/23 02:34:41;;;;;;;20.65;4.22;;;15.40;68.60;;;;;;4164750;28;20045;-67
2022/02/23 02:37:04;;;;;;;22.23;3.75;;;15.40;69.30;;;;;;4178298;28;20083;-68
2022/02/23 02:39:29;;;;;;;13.05;3.25;;;15.50;68.60;;;;;;4178654;28;20485;-69
2022/02/23 02:41:52;;;;;;;20.35;4.93;;;15.50;69.40;;;;;;4178630;28;20405;-69
2022/02/23 02:44:15;;;;;;;17.10;3.25;;;15.50;68.30;;;;;;4178081;28;20059;-69
2022/02/23 02:46:38;;;;;;;20.15;3.88;;;15.60;67.90;;;;;;4178265;28;20049;-69
2022/02/23 02:49:00;;;;;;;16.10;3.15;;;15.70;67.60;;;;;;4178293;28;20077;-69
2022/02/23 02:51:23;;;;;;;22.50;3.80;;;15.70;67.30;;;;;;4162041;28;20076;-69
2022/02/23 02:53:45;;;;;;;14.27;2.60;;;15.80;67.20;;;;;;4162050;28;20053;-70
2022/02/23 02:56:08;;;;;;;14.45;3.13;;;15.70;67.10;;;;;;4161996;28;20057;-69
2022/02/23 02:58:31;;;;;;;17.48;4.10;;;15.80;67.20;;;;;;4171443;28;20044;-69
2022/02/23 03:00:53;;;;;;;20.00;3.20;;;15.70;67.10;;;;;;4176038;28;20459;-69
2022/02/23 03:03:15;;;;;;;13.70;3.38;;;15.70;67.10;;;;;;4166774;28;20045;-69
2022/02/23 03:05:37;;;;;;;18.05;3.67;;;15.70;67.20;;;;;;4176230;28;20115;-70
2022/02/23 03:07:59;;;;;;;15.65;3.15;;;15.70;67.30;;;;;;4177882;28;20045;-70
2022/02/23 03:10:22;;;;;;;15.77;3.13;;;15.60;67.30;;;;;;4178054;28;20056;-69
2022/02/23 03:12:45;;;;;;;18.50;3.63;;;15.70;67.40;;;;;;4178316;28;20049;-69
2022/02/23 03:15:08;;;;;;;22.38;4.28;;;15.70;67.40;;;;;;4177983;28;20390;-69
2022/02/23 03:17:30;;;;;;;16.85;3.72;;;15.70;67.10;;;;;;4161530;28;20425;-70
2022/02/23 03:19:52;;;;;;;20.95;4.03;;;15.80;66.80;;;;;;4160341;28;20072;-69
2022/02/23 03:22:14;;;;;;;17.75;3.17;;;15.80;66.60;;;;;;4145178;28;20057;-68
2022/02/23 03:24:36;;;;;;;18.65;3.85;;;15.90;66.50;;;;;;4145069;28;20466;-68
2022/02/23 03:26:59;;;;;;;16.48;3.63;;;15.80;66.40;;;;;;4144777;28;20058;-68
2022/02/23 03:29:22;;;;;;;19.77;4.45;;;15.80;66.40;;;;;;4144524;28;20195;-68
2022/02/23 03:31:44;;;;;;;16.77;3.78;;;15.80;66.50;;;;;;4144964;28;20060;-69
2022/02/23 03:34:06;;;;;;;19.42;3.50;;;15.80;66.50;;;;;;4146879;28;20147;-69
2022/02/23 03:36:29;;;;;;;21.40;3.85;;;15.80;66.60;;;;;;4160942;28;20045;-69
2022/02/23 03:38:51;;;;;;;19.80;3.88;;;15.70;66.60;;;;;;4161480;28;20053;-69
2022/02/23 03:41:14;;;;;;;18.95;3.60;;;15.70;66.80;;;;;;4161394;28;20115;-69
2022/02/23 03:43:36;;;;;;;21.92;3.92;;;15.60;66.90;;;;;;4161057;28;20413;-69
2022/02/23 03:46:00;;;;;;;18.40;3.78;;;15.60;67.20;;;;;;4160981;28;20068;-69
2022/02/23 03:48:22;;;;;;;20.70;3.72;;;15.50;67.80;;;;;;4161177;28;20053;-69
2022/02/23 03:50:45;;;;;;;22.20;4.10;;;15.50;67.80;;;;;;4160664;28;20065;-69
2022/02/23 03:53:07;;;;;;;16.00;4.35;;;15.60;67.60;;;;;;4160703;28;20067;-68
2022/02/23 03:55:30;;;;;;;17.33;3.42;;;15.50;67.60;;;;;;4177399;28;20103;-69
2022/02/23 03:57:52;;;;;;;22.38;4.50;;;15.60;67.70;;;;;;4177644;28;20064;-69
2022/02/23 04:00:16;;;;;;;19.90;4.10;;;15.50;67.70;;;;;;4176787;28;20128;-70
2022/02/23 04:02:40;;;;;;;17.40;4.03;;;15.60;68.10;;;;;;4177080;28;20056;-69
2022/02/23 04:05:02;;;;;;;20.08;3.67;;;15.60;67.60;;;;;;4177081;28;20096;-69
2022/02/23 04:07:24;;;;;;;21.17;5.43;;;15.60;67.50;;;;;;4174235;28;20516;-69
2022/02/23 04:09:48;;;;;;;22.67;3.70;;;15.70;67.60;;;;;;4176072;28;20516;-71
2022/02/23 04:12:10;;;;;;;12.32;3.47;;;15.70;67.40;;;;;;4176285;28;20131;-70
2022/02/23 04:14:33;;;;;;;24.88;4.35;;;15.80;67.00;;;;;;4176755;28;20045;-70
2022/02/23 04:16:55;;;;;;;21.33;4.47;;;15.90;66.60;;;;;;4176542;28;20079;-69
2022/02/23 04:19:18;;;;;;;13.43;3.13;;;15.90;66.50;;;;;;4176854;28;20114;-70
2022/02/23 04:21:41;;;;;;;19.70;3.45;;;15.90;66.60;;;;;;4176340;28;20052;-70
2022/02/23 04:24:03;;;;;;;21.65;4.07;;;15.90;66.60;;;;;;4176551;28;20115;-70
2022/02/23 04:26:25;;;;;;;18.17;3.85;;;15.80;66.70;;;;;;4172124;28;20447;-70
2022/02/23 04:28:48;;;;;;;16.60;3.45;;;15.80;66.80;;;;;;4176858;28;20053;-70
2022/02/23 04:31:13;;;;;;;17.45;3.33;;;15.70;66.90;;;;;;4176469;28;20041;-69
2022/02/23 04:33:36;;;;;;;16.13;3.35;;;15.70;67.10;;;;;;4176817;28;20049;-69
2022/02/23 04:35:59;;;;;;;22.02;4.22;;;15.60;67.10;;;;;;4176564;28;20055;-69
2022/02/23 04:38:21;;;;;;;23.10;4.03;;;15.60;67.40;;;;;;4176668;28;20492;-69
2022/02/23 04:40:46;;;;;;;17.42;3.92;;;15.60;67.70;;;;;;4175036;28;20052;-69
2022/02/23 04:43:08;;;;;;;14.52;3.78;;;15.50;67.70;;;;;;4176211;28;20048;-69
2022/02/23 04:45:31;;;;;;;17.75;3.25;;;15.50;67.60;;;;;;4176121;28;20402;-70
2022/02/23 04:47:53;;;;;;;16.27;3.90;;;15.50;67.80;;;;;;4175539;28;20750;-70
2022/02/23 04:50:15;;;;;;;17.15;3.53;;;15.50;68.00;;;;;;4176318;28;20405;-70
2022/02/23 04:52:40;;;;;;;17.58;3.53;;;15.50;68.30;;;;;;4176033;28;20493;-70
2022/02/23 04:55:02;;;;;;;21.02;3.28;;;15.50;68.30;;;;;;4174991;28;20076;-69
2022/02/23 04:57:24;;;;;;;18.77;3.75;;;15.60;68.30;;;;;;4166158;28;20049;-70
2022/02/23 04:59:47;;;;;;;17.63;3.67;;;15.70;67.60;;;;;;4160070;28;20115;-70
2022/02/23 05:02:09;;;;;;;24.92;4.25;;;15.70;67.30;;;;;;4160019;28;20533;-69
2022/02/23 05:04:31;;;;;;;16.08;3.85;;;15.80;67.30;;;;;;4167163;28;20111;-69
2022/02/23 05:06:54;;;;;;;13.63;3.13;;;15.80;67.20;;;;;;4176368;28;20113;-70
2022/02/23 05:09:17;;;;;;;21.35;4.63;;;15.80;67.10;;;;;;4176501;28;20072;-69
2022/02/23 05:11:40;;;;;;;18.05;3.90;;;15.80;67.10;;;;;;4174569;28;20048;-69
2022/02/23 05:14:02;;;;;;;18.20;3.30;;;15.80;67.20;;;;;;4175680;28;20053;-70
2022/02/23 05:16:24;;;;;;;11.13;3.20;;;15.70;67.20;;;;;;4176169;28;20086;-70
2022/02/23 05:18:46;;;;;;;22.65;3.45;;;15.70;67.30;;;;;;4176011;28;20056;-71
2022/02/23 05:21:09;;;;;;;13.30;2.63;;;15.60;67.60;;;;;;4159773;28;20053;-70
2022/02/23 05:23:32;;;;;;;22.67;3.70;;;15.60;67.90;;;;;;4159250;28;20486;-69
2022/02/23 05:25:56;;;;;;;18.52;3.95;;;15.60;67.70;;;;;;4159027;28;20045;-70
2022/02/23 05:28:20;;;;;;;15.23;3.38;;;15.70;67.90;;;;;;4159976;28;20485;-69
2022/02/23 05:30:42;;;;;;;13.68;3.05;;;15.70;67.80;;;;;;4159557;28;20117;-69
2022/02/23 05:33:04;;;;;;;14.85;2.95;;;15.70;68.60;;;;;;4159218;28;20117;-71
2022/02/23 05:35:27;;;;;;;16.23;3.45;;;15.70;68.50;;;;;;4159521;28;20053;-71
2022/02/23 05:37:49;;;;;;;14.57;3.72;;;15.70;68.70;;;;;;4159100;28;20757;-71
2022/02/23 05:40:11;;;;;;;13.05;3.58;;;15.80;68.30;;;;;;4159227;28;20445;-70
2022/02/23 05:42:35;;;;;;;21.10;5.00;;;15.70;67.90;;;;;;4159558;28;20536;-70
2022/02/23 05:44:57;;;;;;;16.80;3.67;;;15.80;68.00;;;;;;4159442;28;20050;-70
2022/02/23 05:47:19;;;;;;;16.15;3.05;;;15.70;67.90;;;;;;4158019;28;20044;-70
2022/02/23 05:49:42;;;;;;;11.88;3.20;;;15.70;67.90;;;;;;4159760;28;20049;-69
2022/02/23 05:52:06;;;;;;;17.13;3.10;;;15.70;67.90;;;;;;4160630;28;20135;-69
2022/02/23 05:54:28;;;;;;;13.15;3.13;;;15.80;68.00;;;;;;4161998;28;20576;-68
2022/02/23 05:56:50;;;;;;;17.00;3.58;;;15.70;67.90;;;;;;4160508;28;20587;-69
2022/02/23 05:59:14;;;;;;;15.02;3.53;;;15.70;68.00;;;;;;4162594;28;20130;-70
2022/02/23 06:01:37;;;;;;;19.70;3.65;;;15.70;67.80;;;;;;4162572;28;20457;-69
2022/02/23 06:03:59;;;;;;;13.73;3.63;;;15.70;67.90;;;;;;4162454;28;20103;-69
2022/02/23 06:06:21;;;;;;;24.98;3.55;;;15.70;68.20;;;;;;4162248;28;20080;-69
2022/02/23 06:08:44;;;;;;;14.50;3.95;;;15.70;68.40;;;;;;4162651;28;20057;-69
2022/02/23 06:11:07;;;;;;;13.75;3.15;;;15.70;68.40;;;;;;4162215;28;20045;-69
2022/02/23 06:13:30;;;;;;;13.15;2.90;;;15.70;68.40;;;;;;4162418;28;20048;-69
2022/02/23 06:15:53;;;;;;;11.85;3.42;;;15.70;68.10;;;;;;4162421;28;20128;-70
2022/02/23 06:18:15;;;;;;;24.55;4.47;;;15.80;68.10;;;;;;4162083;28;20099;-70
2022/02/23 06:20:38;;;;;;;12.65;4.18;;;15.70;67.90;;;;;;4162500;28;20049;-69
2022/02/23 06:23:00;;;;;;;18.25;3.75;;;15.70;67.90;;;;;;4162218;28;20060;-70
2022/02/23 06:25:23;;;;;;;18.70;3.10;;;15.70;68.00;;;;;;4162113;28;20049;-69
2022/02/23 06:27:50;;;;;;;17.10;3.58;;;15.60;68.20;;;;;;4161435;28;20053;-69
2022/02/23 06:30:13;;;;;;;13.50;3.08;;;15.60;68.30;;;;;;4162353;28;20060;-69
2022/02/23 06:32:36;;;;;;;25.02;3.78;;;15.60;68.30;;;;;;4161959;28;20146;-68
2022/02/23 06:34:58;;;;;;;13.85;3.47;;;15.60;68.40;;;;;;4161892;28;20080;-69
2022/02/23 06:37:21;;;;;;;19.50;4.20;;;15.70;68.40;;;;;;4162103;28;20107;-69
2022/02/23 06:39:43;;;;;;;15.07;3.47;;;15.70;68.20;;;;;;4161486;28;20061;-69
2022/02/23 06:42:06;;;;;;;17.20;3.08;;;15.80;67.80;;;;;;4161799;28;20049;-69
2022/02/23 06:44:29;;;;;;;16.88;3.50;;;15.90;67.60;;;;;;4161942;28;20069;-69
2022/02/23 06:46:52;;;;;;;14.68;3.28;;;16.00;67.30;;;;;;4154642;28;20107;-69
2022/02/23 06:49:15;;;;;;;14.50;3.17;;;16.00;67.10;;;;;;4145845;28;20486;-68
2022/02/23 06:51:38;;;;;;;19.98;3.58;;;16.00;67.30;;;;;;4144715;28;20057;-67
2022/02/23 06:54:00;;;;;;;15.73;3.60;;;16.00;67.20;;;;;;4145651;28;20093;-68
2022/02/23 06:56:23;;;;;;;14.93;3.70;;;16.00;67.10;;;;;;4145628;28;20058;-68
2022/02/23 06:58:49;;;;;;;19.42;3.63;;;16.00;67.00;;;;;;4157338;28;20061;-68
2022/02/23 07:01:14;;;;;;;15.32;3.13;;;16.00;67.00;;;;;;4161626;28;20096;-68
2022/02/23 07:03:36;;;;;;;16.98;3.03;;;16.00;66.80;;;;;;4160819;28;20099;-69
2022/02/23 07:06:00;;;;;;;17.50;3.55;;;16.00;67.60;;;;;;4161779;28;20116;-67
2022/02/23 07:08:22;;;;;;;15.85;3.03;;;16.00;66.70;;;;;;4160514;28;20068;-68
2022/02/23 07:10:45;;;;;;;14.02;3.47;;;15.90;66.80;;;;;;4160805;28;20049;-69
2022/02/23 07:13:09;;;;;;;15.73;3.17;;;15.90;67.00;;;;;;4148010;28;20087;-69
2022/02/23 07:15:33;;;;;;;17.35;3.60;;;15.90;67.10;;;;;;4161404;28;20049;-69
2022/02/23 07:17:55;;;;;;;19.27;3.35;;;15.90;66.90;;;;;;4160540;28;20118;-69
2022/02/23 07:20:17;;;;;;;12.32;3.13;;;15.90;66.90;;;;;;4160731;28;20045;-68
2022/02/23 07:22:41;;;;;;;16.75;3.42;;;15.90;66.60;;;;;;4144920;28;20054;-69
2022/02/23 07:25:04;;;;;;;18.83;3.67;;;15.90;66.80;;;;;;4144953;28;20050;-68
2022/02/23 07:27:26;;;;;;;13.20;3.55;;;15.90;66.90;;;;;;4145295;28;20062;-68
2022/02/23 07:29:48;;;;;;;11.73;2.65;;;15.90;67.00;;;;;;4158599;28;20474;-68
2022/02/23 07:32:11;;;;;;;13.52;3.45;;;15.90;67.00;;;;;;4160911;28;20049;-68
2022/02/23 07:34:37;;;;;;;14.40;3.13;;;16.00;66.80;;;;;;4161052;28;20115;-68
2022/02/23 07:36:59;;;;;;;15.85;3.30;;;16.00;66.50;;;;;;4160806;28;20476;-68
2022/02/23 07:39:22;;;;;;;17.27;3.28;;;16.10;66.10;;;;;;4159660;28;20049;-68
2022/02/23 07:41:45;;;;;;;12.55;3.45;;;16.20;66.10;;;;;;4160880;28;20717;-67
2022/02/23 07:44:27;;;;;;;15.55;3.80;;;16.20;65.90;;;;;;4160865;28;20064;-68
2022/02/23 07:46:49;;;;;;;14.75;3.10;;;16.20;65.70;;;;;;4160963;28;20049;-68
2022/02/23 07:49:13;;;;;;;18.73;2.97;;;16.30;65.60;;;;;;4160923;28;20060;-68
2022/02/23 07:51:37;;;;;;;13.82;3.30;;;16.30;65.40;;;;;;4160884;28;20045;-67
2022/02/23 07:53:59;;;;;;;14.52;3.53;;;16.20;65.50;;;;;;4145426;28;20104;-68
2022/02/23 07:56:24;;;;;;;17.55;2.90;;;16.20;65.60;;;;;;4159771;28;20114;-68
2022/02/23 07:58:46;;;;;;;20.40;3.58;;;16.20;65.70;;;;;;4160198;28;20088;-68
2022/02/23 08:01:08;;;;;;;11.85;3.03;;;16.20;65.50;;;;;;4160476;28;20060;-68
2022/02/23 08:03:32;;;;;;;13.60;3.63;;;16.20;65.50;;;;;;4150749;28;20049;-66
2022/02/23 08:05:54;;;;;;;14.13;3.53;;;16.20;65.30;;;;;;4179580;28;20067;-67
2022/02/23 08:08:19;;;;;;;13.57;2.97;;;16.20;65.40;;;;;;4193682;28;20060;-68
2022/02/23 08:10:42;;;;;;;9.30;3.28;;;16.20;65.40;;;;;;4160504;28;20045;-68
2022/02/23 08:13:07;;;;;;;12.15;2.65;;;16.10;65.60;;;;;;4160455;28;20057;-67
2022/02/23 08:20:49;;;;;;;16.33;2.78;;;16.10;65.70;;;;;;4176576;28;20416;-69
2022/02/23 08:23:11;;;;;;;19.08;3.28;;;16.10;65.80;;;;;;4175911;28;20410;-69
2022/02/23 08:25:34;;;;;;;11.48;2.97;;;16.10;65.70;;;;;;4176300;28;20053;-69
2022/02/23 08:27:58;;;;;;;15.45;2.95;;;16.10;65.80;;;;;;4176768;28;20041;-68
2022/02/23 08:30:22;;;;;;;12.45;2.47;;;16.10;65.90;;;;;;4176984;28;20049;-68
2022/02/23 08:32:45;;;;;;;14.30;2.90;;;16.10;66.00;;;;;;4176531;28;20073;-68
2022/02/23 08:35:26;;;;;;;9.07;2.35;;;16.10;65.60;;;;;;4176467;28;20056;-69
2022/02/23 08:37:48;;;;;;;13.27;3.35;;;16.20;64.90;;;;;;4175972;28;20412;-68
2022/02/23 08:40:11;;;;;;;13.38;3.13;;;16.30;64.00;;;;;;4176457;28;20405;-68
2022/02/23 08:42:33;;;;;;;10.43;2.60;;;16.30;63.20;;;;;;4176894;28;20468;-68
2022/02/23 08:44:56;;;;;;;10.10;2.75;;;16.40;62.90;;;;;;4176632;28;20076;-67
2022/02/23 08:47:23;;;;;;;14.13;2.38;;;16.50;62.50;;;;;;4176305;28;20048;-69
2022/02/23 08:49:45;;;;;;;5.80;2.83;;;16.40;62.70;;;;;;4176097;28;20056;-68
2022/02/23 08:52:09;;;;;;;15.50;3.05;;;16.40;63.20;;;;;;4175040;28;20055;-68
2022/02/23 08:54:31;;;;;;;10.65;2.95;;;16.40;62.00;;;;;;4176041;28;20077;-68
2022/02/23 08:56:53;;;;;;;7.15;1.73;;;16.40;61.50;;;;;;4159666;28;20052;-68
2022/02/23 08:59:16;;;;;;;10.68;3.05;;;16.40;61.30;;;;;;4160055;28;20053;-68
2022/02/23 09:01:38;;;;;;;20.80;4.80;;;16.40;60.70;;;;;;4166645;28;20049;-68
2022/02/23 09:04:03;;;;;;;11.30;2.85;;;16.40;60.50;;;;;;4176580;28;20045;-68
2022/02/23 09:06:25;;;;;;;14.07;2.15;;;16.50;60.40;;;;;;4176291;28;20057;-69
2022/02/23 09:08:48;;;;;;;14.02;2.30;;;16.50;60.20;;;;;;4176369;28;20060;-69
2022/02/23 09:11:12;;;;;;;10.07;2.25;;;16.60;60.70;;;;;;4175845;28;20492;-68
2022/02/23 09:13:34;;;;;;;12.45;2.58;;;16.60;59.50;;;;;;4175887;28;20095;-68
2022/02/23 09:15:57;;;;;;;13.50;3.50;;;16.70;59.10;;;;;;4169186;28;20492;-66
2022/02/23 09:18:19;;;;;;;8.38;2.47;;;16.70;58.70;;;;;;4170408;28;20054;-69
2022/02/23 09:20:43;;;;;;;15.43;3.42;;;16.70;58.70;;;;;;4157614;28;20052;-67
2022/02/23 09:23:05;;;;;;;14.80;3.92;;;16.70;58.50;;;;;;4157796;28;20141;-69
2022/02/23 09:25:28;;;;;;;10.48;2.95;;;16.70;58.50;;;;;;4157419;28;20470;-67
2022/02/23 09:27:51;;;;;;;21.23;5.97;;;16.60;58.60;;;;;;4171006;28;20392;-68
2022/02/23 09:30:14;;;;;;;13.52;2.88;;;16.60;58.60;;;;;;4160644;28;20836;-69
2022/02/23 09:32:36;;;;;;;13.73;2.80;;;16.50;58.60;;;;;;4156772;28;20524;-68
2022/02/23 09:35:01;;;;;;;14.27;3.20;;;16.50;59.40;;;;;;4159249;28;20520;-67
2022/02/23 09:37:25;;;;;;;16.45;3.35;;;16.40;59.00;;;;;;4157868;28;20462;-66
2022/02/23 09:39:48;;;;;;;15.48;2.78;;;16.30;59.10;;;;;;4157104;28;20053;-66
2022/02/23 09:42:11;;;;;;;10.65;2.65;;;16.30;59.30;;;;;;4140964;28;20046;-66
2022/02/23 09:44:34;;;;;;;14.73;3.15;;;16.20;59.40;;;;;;4147917;28;20132;-66
2022/02/23 09:47:01;;;;;;;13.35;2.30;;;16.20;59.50;;;;;;4141121;28;20046;-67
2022/02/23 09:49:24;;;;;;;11.20;2.90;;;16.20;59.30;;;;;;4141582;28;20144;-66
2022/02/23 09:51:47;;;;;;;6.97;1.75;;;16.30;59.10;;;;;;4140934;28;20136;-66
2022/02/23 09:54:11;;;;;;;15.65;2.25;;;16.30;58.90;;;;;;4141033;28;20046;-66
2022/02/23 09:56:37;;;;;;;9.23;2.05;;;16.30;58.90;;;;;;4140816;28;20060;-65
2022/02/23 09:59:05;;;;;;;17.85;3.45;;;16.30;59.60;;;;;;4141016;28;20057;-65
2022/02/23 10:01:30;;;;;;;9.80;1.80;;;16.30;58.90;;;;;;4141148;28;20398;-66
2022/02/23 10:03:54;;;;;;;13.82;2.55;;;16.30;58.80;;;;;;4146580;28;20048;-68
2022/02/23 10:06:24;;;;;;;12.25;2.45;;;16.40;58.70;;;;;;4150118;28;20421;-67
2022/02/23 10:08:46;;;;;;;18.27;3.25;;;16.40;58.70;;;;;;4154091;28;20129;-67
2022/02/23 10:11:18;;;;;;;5.63;1.60;;;16.40;59.30;;;;;;4149967;28;20085;-65
2022/02/23 10:13:56;;;;;;;14.10;2.78;;;16.40;58.60;;;;;;4142100;28;20060;-67
2022/02/23 10:16:21;;;;;;;15.68;3.15;;;16.30;58.50;;;;;;4144975;28;20056;-66
2022/02/23 10:18:50;;;;;;;12.55;2.78;;;16.30;58.60;;;;;;4141663;28;20473;-65
2022/02/23 10:21:18;;;;;;;5.93;1.95;;;16.30;58.80;;;;;;4140770;28;20116;-65
2022/02/23 10:23:40;;;;;;;14.88;3.22;;;16.20;58.90;;;;;;4140870;28;20054;-65
2022/02/23 10:26:05;;;;;;;3.83;1.90;;;16.20;59.00;;;;;;4140538;28;20045;-65
2022/02/23 10:28:37;;;;;;;17.02;4.88;;;16.10;59.20;;;;;;4149992;28;20057;-65
2022/02/23 10:31:02;;;;;;;7.80;1.98;;;16.10;59.40;;;;;;4142400;28;20058;-60
2022/02/23 10:33:26;;;;;;;27.42;4.53;;;16.00;60.20;;;;;;4142128;28;20057;-60
2022/02/23 10:36:11;;;;;;;9.02;2.58;;;16.00;59.60;;;;;;4156557;28;20042;-60
2022/02/23 10:38:37;;;;;;;16.17;4.10;;;15.90;59.80;;;;;;4174295;28;20045;-61
2022/02/23 10:41:01;;;;;;;11.52;3.45;;;15.90;60.80;;;;;;4158196;28;20084;-62
2022/02/23 10:43:30;;;;;;;13.90;4.13;;;15.80;60.00;;;;;;4149021;28;20054;-61
2022/02/23 10:46:07;;;;;;;11.88;3.85;;;15.80;60.10;;;;;;4144415;28;20521;-61
2022/02/23 10:48:31;;;;;;;9.40;2.90;;;15.70;60.20;;;;;;4160625;28;20057;-61
2022/02/23 10:50:56;;;;;;;5.10;2.75;;;15.70;60.40;;;;;;4167481;28;20049;-61
2022/02/23 10:53:26;;;;;;;8.90;3.47;;;15.70;61.40;;;;;;4163291;28;20149;-61
2022/02/23 10:55:51;;;;;;;7.82;2.70;;;15.60;60.50;;;;;;4170420;28;20131;-74
2022/02/23 10:58:16;;;;;;;13.35;3.42;;;15.60;60.70;;;;;;4165391;28;20101;-67
2022/02/23 11:00:49;;;;;;;6.47;2.42;;;15.50;60.80;;;;;;4160060;28;20049;-61
2022/02/23 11:03:14;;;;;;;11.40;2.97;;;15.50;61.00;;;;;;4169434;28;20053;-61
2022/02/23 11:05:36;;;;;;;9.80;2.28;;;15.50;61.00;;;;;;4159759;28;20068;-61
2022/02/23 11:08:01;;;;;;;12.65;2.75;;;15.50;61.10;;;;;;4160076;28;20688;-61
2022/02/23 11:10:27;;;;;;;11.73;2.35;;;15.50;61.10;;;;;;4160822;28;20046;-62
2022/02/23 11:12:51;;;;;;;15.90;2.63;;;15.50;62.00;;;;;;4168718;28;20485;-60
2022/02/23 11:15:15;;;;;;;8.32;2.22;;;15.50;61.00;;;;;;4160556;28;20053;-62
2022/02/23 11:17:40;;;;;;;7.70;1.60;;;15.60;60.80;;;;;;4160706;28;20385;-61
2022/02/23 11:20:11;;;;;;;7.75;1.65;;;15.70;60.30;;;;;;4160463;28;20053;-60
2022/02/23 11:22:36;;;;;;;;;;;15.70;59.90;;;;;;4161103;28;20052;-60
2022/02/23 11:25:00;;;;;;;4.95;1.55;;;15.80;59.70;;;;;;4162698;28;19925;-60
2022/02/23 11:27:27;;;;;;;5.18;1.45;;;15.80;59.40;;;;;;4161381;28;20075;-60
2022/02/23 11:30:05;;;;;;;3.72;1.50;;;15.90;59.00;;;;;;4161897;28;20057;-60
2022/02/23 11:32:31;;;;;;;6.93;0.90;;;15.90;58.70;;;;;;4144714;28;20056;-61
2022/02/23 11:34:55;;;;;;;5.53;1.40;;;15.90;58.50;;;;;;4145491;28;20136;-60
2022/02/23 11:37:23;;;;;;;4.50;1.08;;;15.90;58.30;;;;;;4145589;28;20478;-60
2022/02/23 11:39:51;;;;;;;5.72;1.60;;;15.80;58.00;;;;;;4143151;28;20798;-60
2022/02/23 11:42:22;;;;;;;7.55;1.70;;;15.80;57.80;;;;;;4144625;28;20569;-60
2022/02/23 11:44:50;;;;;;;6.72;1.80;;;15.80;57.60;;;;;;4146753;28;20089;-61
2022/02/23 11:47:35;;;;;;;9.20;1.13;;;15.80;57.50;;;;;;4159560;28;20496;-60
2022/02/23 11:50:04;;;;;;;7.95;1.60;;;15.80;57.60;;;;;;4160909;28;20049;-61
2022/02/23 11:52:30;;;;;;;3.80;1.38;;;15.70;57.50;;;;;;4157834;28;20883;-62
2022/02/23 11:54:57;;;;;;;2.63;0.93;;;15.70;57.40;;;;;;4167537;28;20126;-61
2022/02/23 11:57:40;;;;;;;4.53;1.65;;;15.70;57.60;;;;;;4166369;28;20049;-60
2022/02/23 12:00:06;;;;;;;7.68;1.50;;;15.60;57.50;;;;;;4162157;28;20059;-60
2022/02/23 12:02:30;;;;;;;3.15;1.20;;;15.60;57.50;;;;;;4163032;28;20053;-60
2022/02/23 12:04:56;;;;;;;3.38;1.60;;;15.60;57.60;;;;;;4159352;28;20064;-62
2022/02/23 12:07:20;;;;;;;4.70;1.38;;;15.60;57.50;;;;;;4158635;28;20053;-61
2022/02/23 12:10:12;;;;;;;5.88;0.70;;;15.60;57.60;;;;;;4158462;28;20054;-61
2022/02/23 12:12:37;;;;;;;6.97;1.80;;;15.50;57.60;;;;;;4163362;28;20947;-61
2022/02/23 12:15:03;;;;;;;4.35;1.23;;;15.50;57.60;;;;;;4159697;28;20088;-61
2022/02/23 12:17:51;;;;;;;8.75;1.55;;;15.50;57.30;;;;;;4159285;28;20133;-62
2022/02/23 12:20:48;;;;;;;4.00;1.17;;;15.50;57.30;;;;;;4144220;28;20049;-61
2022/02/23 12:23:34;;;;;;;2.05;0.90;;;15.50;57.40;;;;;;4157720;28;20080;-61
2022/02/23 12:25:58;;;;;;;3.47;1.15;;;15.50;57.80;;;;;;4163685;28;20057;-62